sensor_id;sensor_type;location;lat;lon;timestamp;pressure;altitude;pressure_sealevel;temperature;humidity
14594;BME280;7383;52.354;9.756;2022-10-16T00:01:40;-12740.28;;;16.43;100.00
14594;BME280;7383;52.354;9.756;2022-10-16T00:04:10;-12740.34;;;16.44;100.00
14594;BME280;7383;52.354;9.756;2022-10-16T00:06:37;-12739.31;;;16.38;100.00
14594;BME280;7383;52.354;9.756;2022-10-16T00:09:04;-12738.81;;;16.35;100.00
14594;BME280;7383;52.354;9.756;2022-10-16T00:11:34;-12738.88;;;16.35;100.00
14594;BME280;7383;52.354;9.756;2022-10-16T00:14:04;-12739.31;;;16.38;100.00
14594;BME280;7383;52.354;9.756;2022-10-16T00:16:34;-12739.31;;;16.38;100.00
14594;BME280;7383;52.354;9.756;2022-10-16T00:19:04;-12739.41;;;16.38;100.00
14594;BME280;7383;52.354;9.756;2022-10-16T00:21:32;-12739.31;;;16.38;100.00
14594;BME280;7383;52.354;9.756;2022-10-16T00:24:00;-12739.06;;;16.36;100.00
14594;BME280;7383;52.354;9.756;2022-10-16T00:26:29;-12739.16;;;16.37;100.00
14594;BME280;7383;52.354;9.756;2022-10-16T00:28:57;-12738.44;;;16.33;100.00
14594;BME280;7383;52.354;9.756;2022-10-16T00:31:24;-12737.94;;;16.30;100.00
14594;BME280;7383;52.354;9.756;2022-10-16T00:33:54;-12737.75;;;16.29;100.00
14594;BME280;7383;52.354;9.756;2022-10-16T00:36:26;-12737.59;;;16.28;100.00
14594;BME280;7383;52.354;9.756;2022-10-16T00:38:54;-12737.25;;;16.25;100.00
14594;BME280;7383;52.354;9.756;2022-10-16T00:41:23;-12737.25;;;16.25;100.00
14594;BME280;7383;52.354;9.756;2022-10-16T00:43:54;-12736.53;;;16.21;100.00
14594;BME280;7383;52.354;9.756;2022-10-16T00:46:26;-12736.28;;;16.20;100.00
14594;BME280;7383;52.354;9.756;2022-10-16T00:48:57;-12735.69;;;16.16;100.00
14594;BME280;7383;52.354;9.756;2022-10-16T00:51:30;-12735.34;;;16.14;100.00
14594;BME280;7383;52.354;9.756;2022-10-16T00:53:57;-12735.44;;;16.15;100.00
14594;BME280;7383;52.354;9.756;2022-10-16T00:56:27;-12735.78;;;16.17;100.00
14594;BME280;7383;52.354;9.756;2022-10-16T00:58:54;-12735.44;;;16.15;100.00
14594;BME280;7383;52.354;9.756;2022-10-16T01:01:21;-12735.59;;;16.16;100.00
14594;BME280;7383;52.354;9.756;2022-10-16T01:03:49;-12735.34;;;16.14;100.00
14594;BME280;7383;52.354;9.756;2022-10-16T01:06:24;-12735.34;;;16.14;100.00
14594;BME280;7383;52.354;9.756;2022-10-16T01:09:06;-12734.66;;;16.10;100.00
14594;BME280;7383;52.354;9.756;2022-10-16T01:11:44;-12733.59;;;16.04;100.00
14594;BME280;7383;52.354;9.756;2022-10-16T01:14:16;-12733.94;;;16.06;100.00
14594;BME280;7383;52.354;9.756;2022-10-16T01:16:50;-12733.53;;;16.04;100.00
14594;BME280;7383;52.354;9.756;2022-10-16T01:19:30;-12732.31;;;15.97;100.00
14594;BME280;7383;52.354;9.756;2022-10-16T01:22:03;-12731.53;;;15.92;100.00
14594;BME280;7383;52.354;9.756;2022-10-16T01:24:39;-12731.78;;;15.94;100.00
14594;BME280;7383;52.354;9.756;2022-10-16T01:27:20;-12732.31;;;15.97;100.00
14594;BME280;7383;52.354;9.756;2022-10-16T01:29:59;-12732.56;;;15.98;100.00
14594;BME280;7383;52.354;9.756;2022-10-16T01:32:43;-12732.41;;;15.97;100.00
14594;BME280;7383;52.354;9.756;2022-10-16T01:35:20;-12732.47;;;15.98;100.00
14594;BME280;7383;52.354;9.756;2022-10-16T01:38:10;-12732.41;;;15.97;100.00
14594;BME280;7383;52.354;9.756;2022-10-16T01:40:47;-12732.31;;;15.97;100.00
14594;BME280;7383;52.354;9.756;2022-10-16T01:43:42;-12732.66;;;15.99;100.00
14594;BME280;7383;52.354;9.756;2022-10-16T01:46:15;-12732.75;;;15.99;100.00
14594;BME280;7383;52.354;9.756;2022-10-16T01:48:47;-12733.19;;;16.02;100.00
14594;BME280;7383;52.354;9.756;2022-10-16T01:51:15;-12733.44;;;16.03;100.00
14594;BME280;7383;52.354;9.756;2022-10-16T01:54:00;-12733.59;;;16.04;100.00
14594;BME280;7383;52.354;9.756;2022-10-16T01:56:29;-12733.59;;;16.04;100.00
14594;BME280;7383;52.354;9.756;2022-10-16T01:59:02;-12733.44;;;16.03;100.00
14594;BME280;7383;52.354;9.756;2022-10-16T02:01:37;-12733.53;;;16.04;100.00
14594;BME280;7383;52.354;9.756;2022-10-16T02:04:23;-12733.44;;;16.03;100.00
14594;BME280;7383;52.354;9.756;2022-10-16T02:06:53;-12733.19;;;16.02;100.00
14594;BME280;7383;52.354;9.756;2022-10-16T02:09:21;-12733.00;;;16.01;100.00
14594;BME280;7383;52.354;9.756;2022-10-16T02:12:03;-12733.25;;;16.02;100.00
14594;BME280;7383;52.354;9.756;2022-10-16T02:14:37;-12733.34;;;16.03;100.00
14594;BME280;7383;52.354;9.756;2022-10-16T02:17:26;-12733.34;;;16.03;100.00
14594;BME280;7383;52.354;9.756;2022-10-16T02:19:55;-12733.00;;;16.01;100.00
14594;BME280;7383;52.354;9.756;2022-10-16T02:22:27;-12733.09;;;16.01;100.00
14594;BME280;7383;52.354;9.756;2022-10-16T02:25:00;-12732.47;;;15.98;100.00
14594;BME280;7383;52.354;9.756;2022-10-16T02:27:33;-12731.88;;;15.94;100.00
14594;BME280;7383;52.354;9.756;2022-10-16T02:30:07;-12731.00;;;15.89;100.00
14594;BME280;7383;52.354;9.756;2022-10-16T02:32:41;-12730.22;;;15.85;100.00
14594;BME280;7383;52.354;9.756;2022-10-16T02:35:09;-12729.97;;;15.83;100.00
14594;BME280;7383;52.354;9.756;2022-10-16T02:37:38;-12730.06;;;15.84;100.00
14594;BME280;7383;52.354;9.756;2022-10-16T02:40:33;-12729.72;;;15.82;100.00
14594;BME280;7383;52.354;9.756;2022-10-16T02:43:07;-12729.19;;;15.79;100.00
14594;BME280;7383;52.354;9.756;2022-10-16T02:45:49;-12728.31;;;15.73;100.00
14594;BME280;7383;52.354;9.756;2022-10-16T02:48:18;-12727.97;;;15.71;100.00
14594;BME280;7383;52.354;9.756;2022-10-16T02:50:45;-12727.72;;;15.70;100.00
14594;BME280;7383;52.354;9.756;2022-10-16T02:53:12;-12727.72;;;15.70;100.00
14594;BME280;7383;52.354;9.756;2022-10-16T02:55:54;-12727.03;;;15.66;100.00
14594;BME280;7383;52.354;9.756;2022-10-16T02:58:25;-12727.28;;;15.67;100.00
14594;BME280;7383;52.354;9.756;2022-10-16T03:00:56;-12727.38;;;15.68;100.00
14594;BME280;7383;52.354;9.756;2022-10-16T03:03:24;-12727.38;;;15.68;100.00
14594;BME280;7383;52.354;9.756;2022-10-16T03:05:51;-12727.53;;;15.69;100.00
14594;BME280;7383;52.354;9.756;2022-10-16T03:08:18;-12727.38;;;15.68;100.00
14594;BME280;7383;52.354;9.756;2022-10-16T03:10:51;-12727.53;;;15.69;100.00
14594;BME280;7383;52.354;9.756;2022-10-16T03:13:19;-12727.72;;;15.70;100.00
14594;BME280;7383;52.354;9.756;2022-10-16T03:15:49;-12727.88;;;15.71;100.00
14594;BME280;7383;52.354;9.756;2022-10-16T03:18:17;-12728.16;;;15.72;100.00
14594;BME280;7383;52.354;9.756;2022-10-16T03:20:46;-12728.06;;;15.72;100.00
14594;BME280;7383;52.354;9.756;2022-10-16T03:23:15;-12727.97;;;15.71;100.00
14594;BME280;7383;52.354;9.756;2022-10-16T03:42:58;-12726.34;;;15.62;100.00
14594;BME280;7383;52.354;9.756;2022-10-16T03:45:34;-12726.50;;;15.63;100.00
14594;BME280;7383;52.354;9.756;2022-10-16T03:48:13;-12726.34;;;15.62;100.00
14594;BME280;7383;52.354;9.756;2022-10-16T03:50:42;-12725.81;;;15.59;100.00
14594;BME280;7383;52.354;9.756;2022-10-16T04:00:14;-12724.59;;;15.52;100.00
14594;BME280;7383;52.354;9.756;2022-10-16T04:02:41;-12723.72;;;15.47;100.00
14594;BME280;7383;52.354;9.756;2022-10-16T04:05:08;-12722.94;;;15.42;100.00
14594;BME280;7383;52.354;9.756;2022-10-16T04:07:38;-12722.09;;;15.37;100.00
14594;BME280;7383;52.354;9.756;2022-10-16T04:10:19;-12721.31;;;15.33;100.00
14594;BME280;7383;52.354;9.756;2022-10-16T04:12:46;-12720.34;;;15.27;100.00
14594;BME280;7383;52.354;9.756;2022-10-16T04:15:16;-12720.09;;;15.25;100.00
14594;BME280;7383;52.354;9.756;2022-10-16T04:17:43;-12720.19;;;15.26;100.00
14594;BME280;7383;52.354;9.756;2022-10-16T04:20:13;-12720.78;;;15.30;100.00
14594;BME280;7383;52.354;9.756;2022-10-16T04:22:41;-12721.47;;;15.34;100.00
14594;BME280;7383;52.354;9.756;2022-10-16T04:25:17;-12722.00;;;15.37;100.00
14594;BME280;7383;52.354;9.756;2022-10-16T04:27:44;-12722.00;;;15.37;100.00
14594;BME280;7383;52.354;9.756;2022-10-16T04:30:11;-12721.66;;;15.35;100.00
14594;BME280;7383;52.354;9.756;2022-10-16T04:32:49;-12720.88;;;15.30;100.00
14594;BME280;7383;52.354;9.756;2022-10-16T04:35:21;-12719.66;;;15.23;100.00
14594;BME280;7383;52.354;9.756;2022-10-16T04:38:02;-12718.69;;;15.17;100.00
14594;BME280;7383;52.354;9.756;2022-10-16T04:40:29;-12718.69;;;15.17;100.00
14594;BME280;7383;52.354;9.756;2022-10-16T04:43:01;-12718.97;;;15.19;100.00
14594;BME280;7383;52.354;9.756;2022-10-16T04:45:28;-12718.53;;;15.16;100.00
14594;BME280;7383;52.354;9.756;2022-10-16T04:48:02;-12718.44;;;15.16;100.00
14594;BME280;7383;52.354;9.756;2022-10-16T04:50:36;-12718.19;;;15.14;100.00
14594;BME280;7383;52.354;9.756;2022-10-16T04:53:21;-12718.28;;;15.15;100.00
14594;BME280;7383;52.354;9.756;2022-10-16T04:55:50;-12717.56;;;15.11;100.00
14594;BME280;7383;52.354;9.756;2022-10-16T04:58:21;-12716.97;;;15.07;100.00
14594;BME280;7383;52.354;9.756;2022-10-16T05:00:52;-12717.06;;;15.08;100.00
14594;BME280;7383;52.354;9.756;2022-10-16T05:03:41;-12717.41;;;15.10;100.00
14594;BME280;7383;52.354;9.756;2022-10-16T05:06:20;-12717.41;;;15.10;100.00
14594;BME280;7383;52.354;9.756;2022-10-16T05:08:47;-12717.66;;;15.11;100.00
14594;BME280;7383;52.354;9.756;2022-10-16T05:11:15;-12717.31;;;15.09;100.00
14594;BME280;7383;52.354;9.756;2022-10-16T05:13:42;-12717.56;;;15.11;100.00
14594;BME280;7383;52.354;9.756;2022-10-16T05:16:09;-12717.41;;;15.10;100.00
14594;BME280;7383;52.354;9.756;2022-10-16T05:18:36;-12717.84;;;15.12;100.00
14594;BME280;7383;52.354;9.756;2022-10-16T05:21:48;-12718.53;;;15.16;100.00
14594;BME280;7383;52.354;9.756;2022-10-16T05:24:15;-12718.63;;;15.17;100.00
14594;BME280;7383;52.354;9.756;2022-10-16T05:26:42;-12719.06;;;15.19;100.00
14594;BME280;7383;52.354;9.756;2022-10-16T05:32:39;-12719.75;;;15.23;100.00
14594;BME280;7383;52.354;9.756;2022-10-16T05:35:16;-12720.09;;;15.25;100.00
14594;BME280;7383;52.354;9.756;2022-10-16T05:38:15;-12720.59;;;15.28;100.00
14594;BME280;7383;52.354;9.756;2022-10-16T05:40:59;-12721.13;;;15.32;100.00
14594;BME280;7383;52.354;9.756;2022-10-16T05:47:00;-12720.34;;;15.27;100.00
14594;BME280;7383;52.354;9.756;2022-10-16T05:50:11;-12720.78;;;15.30;100.00
14594;BME280;7383;52.354;9.756;2022-10-16T05:53:10;-12720.59;;;15.28;100.00
14594;BME280;7383;52.354;9.756;2022-10-16T05:55:59;-12720.34;;;15.27;100.00
14594;BME280;7383;52.354;9.756;2022-10-16T05:58:45;-12720.59;;;15.28;100.00
14594;BME280;7383;52.354;9.756;2022-10-16T06:04:46;-12720.34;;;15.27;100.00
14594;BME280;7383;52.354;9.756;2022-10-16T06:07:21;-12719.75;;;15.23;100.00
14594;BME280;7383;52.354;9.756;2022-10-16T06:10:16;-12719.75;;;15.23;100.00
14594;BME280;7383;52.354;9.756;2022-10-16T06:13:01;-12719.75;;;15.23;100.00
14594;BME280;7383;52.354;9.756;2022-10-16T06:15:42;-12719.81;;;15.24;100.00
14594;BME280;7383;52.354;9.756;2022-10-16T06:21:51;-12720.97;;;15.31;100.00
14594;BME280;7383;52.354;9.756;2022-10-16T06:24:53;-12721.47;;;15.34;100.00
14594;BME280;7383;52.354;9.756;2022-10-16T06:27:23;-12721.66;;;15.35;100.00
14594;BME280;7383;52.354;9.756;2022-10-16T06:29:55;-12722.34;;;15.39;100.00
14594;BME280;7383;52.354;9.756;2022-10-16T06:32:35;-12722.69;;;15.41;100.00
14594;BME280;7383;52.354;9.756;2022-10-16T06:39:05;-12723.28;;;15.44;100.00
14594;BME280;7383;52.354;9.756;2022-10-16T06:41:43;-12724.00;;;15.48;100.00
14594;BME280;7383;52.354;9.756;2022-10-16T06:44:42;-12724.34;;;15.50;100.00
14594;BME280;7383;52.354;9.756;2022-10-16T06:47:17;-12724.34;;;15.50;100.00
14594;BME280;7383;52.354;9.756;2022-10-16T06:49:54;-12724.44;;;15.51;100.00
14594;BME280;7383;52.354;9.756;2022-10-16T06:52:29;-12725.03;;;15.54;100.00
14594;BME280;7383;52.354;9.756;2022-10-16T06:58:34;-12726.41;;;15.62;100.00
14594;BME280;7383;52.354;9.756;2022-10-16T07:25:08;-12733.44;;;16.03;100.00
14594;BME280;7383;52.354;9.756;2022-10-16T07:27:34;-12733.34;;;16.03;100.00
14594;BME280;7383;52.354;9.756;2022-10-16T07:30:01;-12734.31;;;16.08;100.00
14594;BME280;7383;52.354;9.756;2022-10-16T07:32:28;-12734.91;;;16.12;100.00
14594;BME280;7383;52.354;9.756;2022-10-16T07:34:54;-12735.34;;;16.14;100.00
14594;BME280;7383;52.354;9.756;2022-10-16T07:37:21;-12735.59;;;16.16;100.00
14594;BME280;7383;52.354;9.756;2022-10-16T07:39:48;-12736.28;;;16.20;100.00
14594;BME280;7383;52.354;9.756;2022-10-16T07:42:16;-12737.59;;;16.28;100.00
14594;BME280;7383;52.354;9.756;2022-10-16T07:44:42;-12738.81;;;16.35;100.00
14594;BME280;7383;52.354;9.756;2022-10-16T07:47:09;-12739.94;;;16.41;100.00
14594;BME280;7383;52.354;9.756;2022-10-16T07:49:35;-12740.44;;;16.44;100.00
14594;BME280;7383;52.354;9.756;2022-10-16T07:52:03;-12740.97;;;16.47;100.00
14594;BME280;7383;52.354;9.756;2022-10-16T07:54:29;-12740.78;;;16.46;100.00
14594;BME280;7383;52.354;9.756;2022-10-16T07:56:55;-12741.13;;;16.48;100.00
14594;BME280;7383;52.354;9.756;2022-10-16T07:59:23;-12741.91;;;16.53;100.00
14594;BME280;7383;52.354;9.756;2022-10-16T08:01:50;-12743.13;;;16.60;100.00
14594;BME280;7383;52.354;9.756;2022-10-16T08:04:17;-12744.84;;;16.70;100.00
14594;BME280;7383;52.354;9.756;2022-10-16T08:06:43;-12745.47;;;16.73;100.00
14594;BME280;7383;52.354;9.756;2022-10-16T08:09:10;-12746.66;;;16.81;100.00
14594;BME280;7383;52.354;9.756;2022-10-16T08:11:36;-12748.50;;;16.91;100.00
14594;BME280;7383;52.354;9.756;2022-10-16T08:14:03;-12749.69;;;16.98;100.00
14594;BME280;7383;52.354;9.756;2022-10-16T08:16:31;-12750.56;;;17.03;100.00
14594;BME280;7383;52.354;9.756;2022-10-16T08:18:57;-12750.81;;;17.05;100.00
14594;BME280;7383;52.354;9.756;2022-10-16T08:21:24;-12751.09;;;17.06;100.00
14594;BME280;7383;52.354;9.756;2022-10-16T08:23:52;-12751.09;;;17.06;100.00
14594;BME280;7383;52.354;9.756;2022-10-16T08:26:20;-12750.72;;;17.04;100.00
14594;BME280;7383;52.354;9.756;2022-10-16T08:28:49;-12750.47;;;17.03;100.00
14594;BME280;7383;52.354;9.756;2022-10-16T08:31:16;-12750.03;;;17.00;100.00
14594;BME280;7383;52.354;9.756;2022-10-16T08:33:44;-12749.78;;;16.99;100.00
14594;BME280;7383;52.354;9.756;2022-10-16T08:36:13;-12750.13;;;17.01;100.00
14594;BME280;7383;52.354;9.756;2022-10-16T08:38:39;-12750.56;;;17.03;100.00
14594;BME280;7383;52.354;9.756;2022-10-16T08:44:31;-12750.81;;;17.05;100.00
14594;BME280;7383;52.354;9.756;2022-10-16T08:47:12;-12751.25;;;17.07;100.00
14594;BME280;7383;52.354;9.756;2022-10-16T08:49:47;-12750.22;;;17.01;100.00
14594;BME280;7383;52.354;9.756;2022-10-16T08:52:16;-12749.34;;;16.96;100.00
14594;BME280;7383;52.354;9.756;2022-10-16T08:54:45;-12749.88;;;16.99;100.00
14594;BME280;7383;52.354;9.756;2022-10-16T08:57:16;-12750.22;;;17.01;100.00
14594;BME280;7383;52.354;9.756;2022-10-16T08:59:43;-12751.09;;;17.06;100.00
14594;BME280;7383;52.354;9.756;2022-10-16T09:02:23;-12752.03;;;17.12;100.00
14594;BME280;7383;52.354;9.756;2022-10-16T09:05:11;-12752.91;;;17.17;100.00
14594;BME280;7383;52.354;9.756;2022-10-16T09:07:49;-12753.31;;;17.19;100.00
14594;BME280;7383;52.354;9.756;2022-10-16T09:10:32;-12753.59;;;17.21;100.00
14594;BME280;7383;52.354;9.756;2022-10-16T09:13:12;-12754.53;;;17.27;100.00
14594;BME280;7383;52.354;9.756;2022-10-16T09:15:48;-12754.88;;;17.29;100.00
14594;BME280;7383;52.354;9.756;2022-10-16T09:18:22;-12755.56;;;17.33;100.00
14594;BME280;7383;52.354;9.756;2022-10-16T09:21:00;-12756.00;;;17.35;100.00
14594;BME280;7383;52.354;9.756;2022-10-16T09:23:30;-12756.59;;;17.39;100.00
14594;BME280;7383;52.354;9.756;2022-10-16T09:25:58;-12756.88;;;17.40;100.00
14594;BME280;7383;52.354;9.756;2022-10-16T09:28:25;-12757.38;;;17.43;100.00
14594;BME280;7383;52.354;9.756;2022-10-16T09:30:52;-12758.00;;;17.47;100.00
14594;BME280;7383;52.354;9.756;2022-10-16T09:33:20;-12758.06;;;17.47;100.00
14594;BME280;7383;52.354;9.756;2022-10-16T09:35:49;-12758.59;;;17.50;100.00
14594;BME280;7383;52.354;9.756;2022-10-16T09:38:27;-12759.13;;;17.53;100.00
14594;BME280;7383;52.354;9.756;2022-10-16T09:40:54;-12759.72;;;17.57;100.00
14594;BME280;7383;52.354;9.756;2022-10-16T09:43:24;-12760.16;;;17.59;100.00
14594;BME280;7383;52.354;9.756;2022-10-16T09:45:57;-12760.94;;;17.64;100.00
14594;BME280;7383;52.354;9.756;2022-10-16T09:48:28;-12761.19;;;17.65;100.00
14594;BME280;7383;52.354;9.756;2022-10-16T09:50:58;-12761.34;;;17.66;100.00
14594;BME280;7383;52.354;9.756;2022-10-16T09:53:38;-12762.13;;;17.71;100.00
14594;BME280;7383;52.354;9.756;2022-10-16T09:56:05;-12762.56;;;17.74;100.00
14594;BME280;7383;52.354;9.756;2022-10-16T09:58:32;-12763.00;;;17.76;100.00
14594;BME280;7383;52.354;9.756;2022-10-16T10:00:59;-12763.53;;;17.79;100.00
14594;BME280;7383;52.354;9.756;2022-10-16T10:03:37;-12764.63;;;17.86;100.00
14594;BME280;7383;52.354;9.756;2022-10-16T10:06:14;-12765.34;;;17.90;100.00
14594;BME280;7383;52.354;9.756;2022-10-16T10:08:54;-12766.28;;;17.95;100.00
14594;BME280;7383;52.354;9.756;2022-10-16T10:11:41;-12766.72;;;17.98;100.00
14594;BME280;7383;52.354;9.756;2022-10-16T10:14:17;-12767.22;;;18.01;100.00
14594;BME280;7383;52.354;9.756;2022-10-16T10:16:44;-12768.19;;;18.06;100.00
14594;BME280;7383;52.354;9.756;2022-10-16T10:19:14;-12769.28;;;18.13;100.00
14594;BME280;7383;52.354;9.756;2022-10-16T10:21:41;-12770.41;;;18.19;100.00
14594;BME280;7383;52.354;9.756;2022-10-16T10:24:12;-12771.53;;;18.26;100.00
14594;BME280;7383;52.354;9.756;2022-10-16T10:26:45;-12772.91;;;18.34;100.00
14594;BME280;7383;52.354;9.756;2022-10-16T10:29:21;-12774.22;;;18.42;100.00
14594;BME280;7383;52.354;9.756;2022-10-16T10:31:54;-12775.50;;;18.49;100.00
14594;BME280;7383;52.354;9.756;2022-10-16T10:34:37;-12777.66;;;18.62;100.00
14594;BME280;7383;52.354;9.756;2022-10-16T10:37:19;-12780.06;;;18.76;100.00
14594;BME280;7383;52.354;9.756;2022-10-16T10:39:53;-12782.56;;;18.91;100.00
14594;BME280;7383;52.354;9.756;2022-10-16T10:42:27;-12783.53;;;18.96;100.00
14594;BME280;7383;52.354;9.756;2022-10-16T10:45:11;-12784.91;;;19.04;100.00
14594;BME280;7383;52.354;9.756;2022-10-16T10:47:47;-12787.06;;;19.17;100.00
14594;BME280;7383;52.354;9.756;2022-10-16T10:50:24;-12789.97;;;19.34;100.00
14594;BME280;7383;52.354;9.756;2022-10-16T10:53:00;-12793.59;;;19.55;100.00
14594;BME280;7383;52.354;9.756;2022-10-16T10:55:39;-12797.47;;;19.78;100.00
14594;BME280;7383;52.354;9.756;2022-10-16T11:01:06;-12803.13;;;20.11;100.00
14594;BME280;7383;52.354;9.756;2022-10-16T11:03:46;-12806.16;;;20.29;100.00
14594;BME280;7383;52.354;9.756;2022-10-16T11:06:20;-12808.81;;;20.45;100.00
14594;BME280;7383;52.354;9.756;2022-10-16T11:08:52;-12808.81;;;20.45;100.00
14594;BME280;7383;52.354;9.756;2022-10-16T11:11:25;-12807.88;;;20.39;100.00
14594;BME280;7383;52.354;9.756;2022-10-16T11:13:59;-12806.91;;;20.34;100.00
14594;BME280;7383;52.354;9.756;2022-10-16T11:16:27;-12809.16;;;20.47;100.00
14594;BME280;7383;52.354;9.756;2022-10-16T11:18:59;-12812.25;;;20.65;100.00
14594;BME280;7383;52.354;9.756;2022-10-16T11:21:33;-12814.75;;;20.80;100.00
14594;BME280;7383;52.354;9.756;2022-10-16T11:24:09;-12817.91;;;20.98;100.00
14594;BME280;7383;52.354;9.756;2022-10-16T11:26:41;-12820.31;;;21.13;100.00
14594;BME280;7383;52.354;9.756;2022-10-16T11:29:18;-12856.78;;;23.28;100.00
14594;BME280;7383;52.354;9.756;2022-10-16T11:31:50;-12899.34;;;25.80;100.00
14594;BME280;7383;52.354;9.756;2022-10-16T11:34:22;-12919.31;;;26.99;100.00
14594;BME280;7383;52.354;9.756;2022-10-16T11:36:55;-12941.94;;;28.33;100.00
14594;BME280;7383;52.354;9.756;2022-10-16T11:39:25;-12943.97;;;28.46;100.00
14594;BME280;7383;52.354;9.756;2022-10-16T11:41:58;-12970.41;;;30.04;100.00
14594;BME280;7383;52.354;9.756;2022-10-16T11:44:36;-12997.09;;;31.64;100.00
14594;BME280;7383;52.354;9.756;2022-10-16T11:47:16;-13022.34;;;33.16;100.00
14594;BME280;7383;52.354;9.756;2022-10-16T11:49:47;-13032.41;;;33.77;100.00
14594;BME280;7383;52.354;9.756;2022-10-16T11:52:22;-13043.25;;;34.42;100.00
14594;BME280;7383;52.354;9.756;2022-10-16T11:54:53;-13028.56;;;33.53;100.00
14594;BME280;7383;52.354;9.756;2022-10-16T11:57:24;-13038.84;;;34.16;100.00
14594;BME280;7383;52.354;9.756;2022-10-16T11:59:57;-13054.78;;;35.12;100.00
14594;BME280;7383;52.354;9.756;2022-10-16T12:02:38;-13054.28;;;35.09;100.00
14594;BME280;7383;52.354;9.756;2022-10-16T12:05:17;-13062.38;;;35.58;100.00
14594;BME280;7383;52.354;9.756;2022-10-16T12:07:50;-13078.53;;;36.56;100.00
14594;BME280;7383;52.354;9.756;2022-10-16T12:10:21;-13091.91;;;37.37;100.00
14594;BME280;7383;52.354;9.756;2022-10-16T12:12:50;-13098.28;;;37.76;100.00
14594;BME280;7383;52.354;9.756;2022-10-16T12:15:24;-13093.81;;;37.49;100.00
14594;BME280;7383;52.354;9.756;2022-10-16T12:17:51;-13079.09;;;36.60;100.00
14594;BME280;7383;52.354;9.756;2022-10-16T12:20:22;-13063.97;;;35.68;100.00
14594;BME280;7383;52.354;9.756;2022-10-16T12:22:52;-13081.03;;;36.71;100.00
14594;BME280;7383;52.354;9.756;2022-10-16T12:25:22;-13104.19;;;38.12;100.00
14594;BME280;7383;52.354;9.756;2022-10-16T12:27:59;-13121.88;;;39.20;100.00
14594;BME280;7383;52.354;9.756;2022-10-16T12:30:28;-13125.94;;;39.45;100.00
14594;BME280;7383;52.354;9.756;2022-10-16T12:32:56;-13134.09;;;39.95;100.00
14594;BME280;7383;52.354;9.756;2022-10-16T12:35:26;-13131.06;;;39.76;100.00
14594;BME280;7383;52.354;9.756;2022-10-16T12:37:54;-13124.63;;;39.37;100.00
14594;BME280;7383;52.354;9.756;2022-10-16T12:40:35;-13120.47;;;39.12;100.00
14594;BME280;7383;52.354;9.756;2022-10-16T12:43:28;-13124.78;;;39.38;100.00
14594;BME280;7383;52.354;9.756;2022-10-16T12:46:03;-13088.84;;;37.19;100.00
14594;BME280;7383;52.354;9.756;2022-10-16T12:48:30;-13045.09;;;34.53;100.00
14594;BME280;7383;52.354;9.756;2022-10-16T12:50:57;-12998.19;;;31.70;100.00
14594;BME280;7383;52.354;9.756;2022-10-16T12:53:26;-12985.06;;;30.92;100.00
14594;BME280;7383;52.354;9.756;2022-10-16T12:56:03;-12970.41;;;30.04;100.00
14594;BME280;7383;52.354;9.756;2022-10-16T12:58:49;-12959.19;;;29.37;100.00
14594;BME280;7383;52.354;9.756;2022-10-16T13:01:28;-12947.84;;;28.69;100.00
14594;BME280;7383;52.354;9.756;2022-10-16T13:04:10;-12940.84;;;28.27;100.00
14594;BME280;7383;52.354;9.756;2022-10-16T13:06:46;-12926.34;;;27.40;100.00
14594;BME280;7383;52.354;9.756;2022-10-16T13:09:38;-12919.47;;;27.00;100.00
14594;BME280;7383;52.354;9.756;2022-10-16T13:12:21;-12908.19;;;26.32;100.00
14594;BME280;7383;52.354;9.756;2022-10-16T13:15:11;-12895.09;;;25.55;100.00
14594;BME280;7383;52.354;9.756;2022-10-16T13:17:52;-12887.94;;;25.12;100.00
14594;BME280;7383;52.354;9.756;2022-10-16T13:20:25;-12883.75;;;24.87;100.00
14594;BME280;7383;52.354;9.756;2022-10-16T13:23:03;-12879.84;;;24.64;100.00
14594;BME280;7383;52.354;9.756;2022-10-16T13:25:40;-12877.38;;;24.49;100.00
14594;BME280;7383;52.354;9.756;2022-10-16T13:28:13;-12883.25;;;24.84;100.00
14594;BME280;7383;52.354;9.756;2022-10-16T13:30:43;-12881.88;;;24.76;100.00
14594;BME280;7383;52.354;9.756;2022-10-16T13:33:17;-12879.50;;;24.62;100.00
14594;BME280;7383;52.354;9.756;2022-10-16T13:35:57;-12880.53;;;24.68;100.00
14594;BME280;7383;52.354;9.756;2022-10-16T13:38:25;-12879.00;;;24.59;100.00
14594;BME280;7383;52.354;9.756;2022-10-16T13:40:56;-12888.38;;;25.15;100.00
14594;BME280;7383;52.354;9.756;2022-10-16T13:43:28;-12937.53;;;28.07;100.00
14594;BME280;7383;52.354;9.756;2022-10-16T13:46:02;-12981.09;;;30.68;100.00
14594;BME280;7383;52.354;9.756;2022-10-16T13:48:33;-13009.84;;;32.41;100.00
14594;BME280;7383;52.354;9.756;2022-10-16T13:51:05;-13035.56;;;33.96;100.00
14594;BME280;7383;52.354;9.756;2022-10-16T13:53:34;-13055.72;;;35.18;100.00
14594;BME280;7383;52.354;9.756;2022-10-16T13:56:10;-13064.88;;;35.73;100.00
14594;BME280;7383;52.354;9.756;2022-10-16T13:59:20;-13084.59;;;36.93;100.00
14594;BME280;7383;52.354;9.756;2022-10-16T14:01:51;-13088.41;;;37.16;100.00
14594;BME280;7383;52.354;9.756;2022-10-16T14:04:20;-13079.19;;;36.60;100.00
14594;BME280;7383;52.354;9.756;2022-10-16T14:06:49;-13090.06;;;37.26;100.00
14594;BME280;7383;52.354;9.756;2022-10-16T14:09:22;-13087.91;;;37.13;100.00
14594;BME280;7383;52.354;9.756;2022-10-16T14:11:54;-13092.41;;;37.40;100.00
14594;BME280;7383;52.354;9.756;2022-10-16T14:14:27;-13093.47;;;37.47;100.00
14594;BME280;7383;52.354;9.756;2022-10-16T14:16:59;-13091.81;;;37.37;100.00
14594;BME280;7383;52.354;9.756;2022-10-16T14:19:27;-13099.44;;;37.83;100.00
14594;BME280;7383;52.354;9.756;2022-10-16T14:21:58;-13104.59;;;38.15;100.00
14594;BME280;7383;52.354;9.756;2022-10-16T14:24:30;-13096.38;;;37.65;100.00
14594;BME280;7383;52.354;9.756;2022-10-16T14:27:02;-13065.88;;;35.79;100.00
14594;BME280;7383;52.354;9.756;2022-10-16T14:30:08;-13018.50;;;32.93;100.00
14594;BME280;7383;52.354;9.756;2022-10-16T14:32:40;-12981.34;;;30.69;100.00
14594;BME280;7383;52.354;9.756;2022-10-16T14:35:24;-12943.19;;;28.41;100.00
14594;BME280;7383;52.354;9.756;2022-10-16T14:38:14;-12924.22;;;27.28;100.00
14594;BME280;7383;52.354;9.756;2022-10-16T14:40:47;-12908.34;;;26.33;100.00